Arcadia, Pennsylvania
Current Conditions -  °F | °C
As of 1:35 PM on Wednesday 26 Nov 2014 (Local Time) from KIDI Reporting Station
Haze Haze  
Wind Chill: 27°   Ceiling: 400
Heat Index: 32°   Visibility: 0.5mi
Dew Point: 32°   Wind: 5mph
Humidity: 100%   Direction: 40°NE
Pressure: 30.02"   Gusts: NA
Location:  40.78°N, 78.85°W
Report Text: KIDI 261835Z AUTO 04004KT 1/2SM BR OVC004 00/00 A3002 RMK A01
Loading
Personal Weather Stations






























Interactive Weather Map New forecast layout! Learn more

10-Day Weather Forecast

Advertisements
Track Severe Weather on mobile